sensor_id;sensor_type;location;lat;lon;timestamp;P1;durP1;ratioP1;P2;durP2;ratioP2
69126;SDS011;56688;50.234;19.292;2022-07-29T00:01:15;11.30;;;4.50;;
69126;SDS011;56688;50.234;19.292;2022-07-29T00:03:45;13.20;;;4.70;;
69126;SDS011;56688;50.234;19.292;2022-07-29T00:06:12;9.60;;;4.30;;
69126;SDS011;56688;50.234;19.292;2022-07-29T00:08:39;10.90;;;4.80;;
69126;SDS011;56688;50.234;19.292;2022-07-29T00:11:06;11.90;;;4.50;;
69126;SDS011;56688;50.234;19.292;2022-07-29T00:13:33;15.30;;;5.00;;
69126;SDS011;56688;50.234;19.292;2022-07-29T00:16:00;9.90;;;4.70;;
69126;SDS011;56688;50.234;19.292;2022-07-29T00:18:30;11.40;;;4.80;;
69126;SDS011;56688;50.234;19.292;2022-07-29T00:20:58;10.20;;;4.50;;
69126;SDS011;56688;50.234;19.292;2022-07-29T00:23:25;9.30;;;4.80;;
69126;SDS011;56688;50.234;19.292;2022-07-29T00:25:52;9.00;;;3.80;;
69126;SDS011;56688;50.234;19.292;2022-07-29T00:28:19;11.30;;;3.90;;
69126;SDS011;56688;50.234;19.292;2022-07-29T00:30:46;8.40;;;3.70;;
69126;SDS011;56688;50.234;19.292;2022-07-29T00:33:13;7.30;;;3.50;;
69126;SDS011;56688;50.234;19.292;2022-07-29T00:35:40;7.70;;;3.70;;
69126;SDS011;56688;50.234;19.292;2022-07-29T00:38:13;6.10;;;3.60;;
69126;SDS011;56688;50.234;19.292;2022-07-29T00:40:43;5.80;;;3.30;;
69126;SDS011;56688;50.234;19.292;2022-07-29T00:43:11;6.50;;;3.80;;
69126;SDS011;56688;50.234;19.292;2022-07-29T00:45:41;10.30;;;3.60;;
69126;SDS011;56688;50.234;19.292;2022-07-29T00:48:08;6.30;;;3.40;;
69126;SDS011;56688;50.234;19.292;2022-07-29T00:50:36;7.70;;;3.50;;
69126;SDS011;56688;50.234;19.292;2022-07-29T00:53:04;9.60;;;3.80;;
69126;SDS011;56688;50.234;19.292;2022-07-29T00:55:33;9.30;;;3.60;;
69126;SDS011;56688;50.234;19.292;2022-07-29T00:58:00;8.70;;;3.70;;
69126;SDS011;56688;50.234;19.292;2022-07-29T01:00:28;7.70;;;3.40;;
69126;SDS011;56688;50.234;19.292;2022-07-29T01:02:55;7.70;;;3.20;;
69126;SDS011;56688;50.234;19.292;2022-07-29T01:05:23;5.70;;;2.90;;
69126;SDS011;56688;50.234;19.292;2022-07-29T01:08:13;4.80;;;2.90;;
69126;SDS011;56688;50.234;19.292;2022-07-29T01:10:41;3.40;;;2.60;;
69126;SDS011;56688;50.234;19.292;2022-07-29T01:13:11;5.10;;;2.70;;
69126;SDS011;56688;50.234;19.292;2022-07-29T01:15:43;8.80;;;2.80;;
69126;SDS011;56688;50.234;19.292;2022-07-29T01:18:17;8.70;;;2.80;;
69126;SDS011;56688;50.234;19.292;2022-07-29T01:28:59;4.20;;;2.60;;
69126;SDS011;56688;50.234;19.292;2022-07-29T01:31:47;7.00;;;2.60;;
69126;SDS011;56688;50.234;19.292;2022-07-29T01:34:29;3.80;;;2.00;;
69126;SDS011;56688;50.234;19.292;2022-07-29T01:37:08;6.40;;;2.50;;
69126;SDS011;56688;50.234;19.292;2022-07-29T01:39:46;3.40;;;2.20;;
69126;SDS011;56688;50.234;19.292;2022-07-29T01:45:06;6.50;;;2.20;;
69126;SDS011;56688;50.234;19.292;2022-07-29T01:47:37;4.00;;;1.90;;
69126;SDS011;56688;50.234;19.292;2022-07-29T01:50:10;4.00;;;1.80;;
69126;SDS011;56688;50.234;19.292;2022-07-29T01:52:41;4.40;;;2.10;;
69126;SDS011;56688;50.234;19.292;2022-07-29T01:55:13;2.70;;;2.00;;
69126;SDS011;56688;50.234;19.292;2022-07-29T01:57:42;3.40;;;1.70;;
69126;SDS011;56688;50.234;19.292;2022-07-29T02:00:11;3.30;;;1.90;;
69126;SDS011;56688;50.234;19.292;2022-07-29T02:02:41;3.60;;;1.70;;
69126;SDS011;56688;50.234;19.292;2022-07-29T02:05:11;8.10;;;2.40;;
69126;SDS011;56688;50.234;19.292;2022-07-29T02:07:41;5.00;;;1.90;;
69126;SDS011;56688;50.234;19.292;2022-07-29T02:10:10;3.00;;;2.00;;
69126;SDS011;56688;50.234;19.292;2022-07-29T02:12:39;7.50;;;2.00;;
69126;SDS011;56688;50.234;19.292;2022-07-29T02:15:16;4.50;;;1.70;;
69126;SDS011;56688;50.234;19.292;2022-07-29T02:17:44;5.00;;;2.30;;
69126;SDS011;56688;50.234;19.292;2022-07-29T02:20:16;4.60;;;1.60;;
69126;SDS011;56688;50.234;19.292;2022-07-29T02:22:43;3.80;;;1.90;;
69126;SDS011;56688;50.234;19.292;2022-07-29T02:25:13;3.70;;;1.80;;
69126;SDS011;56688;50.234;19.292;2022-07-29T02:27:42;4.00;;;1.80;;
69126;SDS011;56688;50.234;19.292;2022-07-29T02:30:10;2.40;;;1.80;;
69126;SDS011;56688;50.234;19.292;2022-07-29T02:32:39;2.70;;;1.60;;
69126;SDS011;56688;50.234;19.292;2022-07-29T02:35:09;3.30;;;1.70;;
69126;SDS011;56688;50.234;19.292;2022-07-29T02:37:38;3.50;;;1.70;;
69126;SDS011;56688;50.234;19.292;2022-07-29T02:40:08;3.70;;;1.70;;
69126;SDS011;56688;50.234;19.292;2022-07-29T02:42:37;5.50;;;1.80;;
69126;SDS011;56688;50.234;19.292;2022-07-29T02:45:07;3.60;;;1.60;;
69126;SDS011;56688;50.234;19.292;2022-07-29T02:47:39;2.30;;;1.70;;
69126;SDS011;56688;50.234;19.292;2022-07-29T02:50:12;3.30;;;1.80;;
69126;SDS011;56688;50.234;19.292;2022-07-29T02:52:45;4.80;;;1.80;;
69126;SDS011;56688;50.234;19.292;2022-07-29T02:55:25;3.70;;;1.60;;
69126;SDS011;56688;50.234;19.292;2022-07-29T03:00:40;3.20;;;2.00;;
69126;SDS011;56688;50.234;19.292;2022-07-29T03:03:09;7.00;;;1.70;;
69126;SDS011;56688;50.234;19.292;2022-07-29T03:05:39;4.70;;;1.60;;
69126;SDS011;56688;50.234;19.292;2022-07-29T03:08:08;6.70;;;1.60;;
69126;SDS011;56688;50.234;19.292;2022-07-29T03:10:39;4.80;;;1.80;;
69126;SDS011;56688;50.234;19.292;2022-07-29T03:13:09;2.70;;;1.50;;
69126;SDS011;56688;50.234;19.292;2022-07-29T03:15:36;3.40;;;1.90;;
69126;SDS011;56688;50.234;19.292;2022-07-29T03:18:05;8.30;;;1.80;;
69126;SDS011;56688;50.234;19.292;2022-07-29T03:20:33;4.40;;;1.80;;
69126;SDS011;56688;50.234;19.292;2022-07-29T03:23:00;3.60;;;1.70;;
69126;SDS011;56688;50.234;19.292;2022-07-29T03:25:27;5.80;;;1.70;;
69126;SDS011;56688;50.234;19.292;2022-07-29T03:27:54;4.30;;;1.80;;
69126;SDS011;56688;50.234;19.292;2022-07-29T03:30:20;5.20;;;1.60;;
69126;SDS011;56688;50.234;19.292;2022-07-29T03:32:48;2.50;;;1.50;;
69126;SDS011;56688;50.234;19.292;2022-07-29T03:38:00;7.80;;;1.60;;
69126;SDS011;56688;50.234;19.292;2022-07-29T03:40:31;5.00;;;1.70;;
69126;SDS011;56688;50.234;19.292;2022-07-29T03:43:05;3.10;;;1.30;;
69126;SDS011;56688;50.234;19.292;2022-07-29T03:45:35;3.20;;;1.70;;
69126;SDS011;56688;50.234;19.292;2022-07-29T03:48:05;2.90;;;1.40;;
69126;SDS011;56688;50.234;19.292;2022-07-29T03:50:35;4.30;;;1.70;;
69126;SDS011;56688;50.234;19.292;2022-07-29T03:53:03;2.40;;;1.70;;
69126;SDS011;56688;50.234;19.292;2022-07-29T03:55:32;3.80;;;2.00;;
69126;SDS011;56688;50.234;19.292;2022-07-29T03:58:04;4.30;;;1.70;;
69126;SDS011;56688;50.234;19.292;2022-07-29T04:00:33;5.30;;;2.00;;
69126;SDS011;56688;50.234;19.292;2022-07-29T04:03:01;3.80;;;1.70;;
69126;SDS011;56688;50.234;19.292;2022-07-29T04:05:36;3.80;;;1.80;;
69126;SDS011;56688;50.234;19.292;2022-07-29T04:08:03;8.00;;;1.60;;
69126;SDS011;56688;50.234;19.292;2022-07-29T04:10:30;5.30;;;1.80;;
69126;SDS011;56688;50.234;19.292;2022-07-29T04:13:01;3.60;;;1.80;;
69126;SDS011;56688;50.234;19.292;2022-07-29T04:15:28;2.60;;;1.30;;
69126;SDS011;56688;50.234;19.292;2022-07-29T04:17:57;4.00;;;1.80;;
69126;SDS011;56688;50.234;19.292;2022-07-29T04:20:25;3.20;;;1.80;;
69126;SDS011;56688;50.234;19.292;2022-07-29T04:22:52;7.70;;;1.70;;
69126;SDS011;56688;50.234;19.292;2022-07-29T04:25:19;3.60;;;1.70;;
69126;SDS011;56688;50.234;19.292;2022-07-29T04:27:46;3.70;;;1.80;;
69126;SDS011;56688;50.234;19.292;2022-07-29T04:30:30;5.20;;;1.90;;
69126;SDS011;56688;50.234;19.292;2022-07-29T04:32:58;5.80;;;2.10;;
69126;SDS011;56688;50.234;19.292;2022-07-29T04:35:27;4.60;;;1.70;;
69126;SDS011;56688;50.234;19.292;2022-07-29T04:38:04;4.70;;;1.90;;
69126;SDS011;56688;50.234;19.292;2022-07-29T04:40:32;4.70;;;2.00;;
69126;SDS011;56688;50.234;19.292;2022-07-29T04:43:04;5.50;;;1.80;;
69126;SDS011;56688;50.234;19.292;2022-07-29T04:45:31;3.00;;;1.70;;
69126;SDS011;56688;50.234;19.292;2022-07-29T04:47:58;3.10;;;2.00;;
69126;SDS011;56688;50.234;19.292;2022-07-29T04:50:25;6.50;;;2.00;;
69126;SDS011;56688;50.234;19.292;2022-07-29T04:52:52;3.20;;;1.80;;
69126;SDS011;56688;50.234;19.292;2022-07-29T04:55:19;5.00;;;2.10;;
69126;SDS011;56688;50.234;19.292;2022-07-29T04:57:46;4.60;;;1.70;;
69126;SDS011;56688;50.234;19.292;2022-07-29T05:00:14;4.00;;;1.50;;
69126;SDS011;56688;50.234;19.292;2022-07-29T05:02:41;4.60;;;1.90;;
69126;SDS011;56688;50.234;19.292;2022-07-29T05:05:08;4.50;;;1.90;;
69126;SDS011;56688;50.234;19.292;2022-07-29T05:07:35;3.60;;;1.80;;
69126;SDS011;56688;50.234;19.292;2022-07-29T05:10:02;2.50;;;1.90;;
69126;SDS011;56688;50.234;19.292;2022-07-29T05:12:30;3.70;;;1.50;;
69126;SDS011;56688;50.234;19.292;2022-07-29T05:14:56;3.10;;;2.00;;
69126;SDS011;56688;50.234;19.292;2022-07-29T05:17:23;3.00;;;1.70;;
69126;SDS011;56688;50.234;19.292;2022-07-29T05:19:50;6.90;;;2.20;;
69126;SDS011;56688;50.234;19.292;2022-07-29T05:22:18;4.30;;;2.00;;
69126;SDS011;56688;50.234;19.292;2022-07-29T05:24:45;4.80;;;1.70;;
69126;SDS011;56688;50.234;19.292;2022-07-29T05:27:13;5.30;;;2.00;;
69126;SDS011;56688;50.234;19.292;2022-07-29T05:29:40;5.10;;;2.00;;
69126;SDS011;56688;50.234;19.292;2022-07-29T05:32:10;5.90;;;2.20;;
69126;SDS011;56688;50.234;19.292;2022-07-29T05:34:38;4.10;;;2.00;;
69126;SDS011;56688;50.234;19.292;2022-07-29T05:37:17;4.40;;;2.10;;
69126;SDS011;56688;50.234;19.292;2022-07-29T05:39:45;3.30;;;1.90;;
69126;SDS011;56688;50.234;19.292;2022-07-29T05:42:22;5.30;;;1.90;;
69126;SDS011;56688;50.234;19.292;2022-07-29T05:44:49;4.00;;;2.10;;
69126;SDS011;56688;50.234;19.292;2022-07-29T05:47:17;5.00;;;2.00;;
69126;SDS011;56688;50.234;19.292;2022-07-29T05:49:44;5.00;;;1.90;;
69126;SDS011;56688;50.234;19.292;2022-07-29T05:52:11;3.30;;;2.00;;
69126;SDS011;56688;50.234;19.292;2022-07-29T05:54:39;5.10;;;2.10;;
69126;SDS011;56688;50.234;19.292;2022-07-29T05:57:07;4.00;;;1.60;;
69126;SDS011;56688;50.234;19.292;2022-07-29T05:59:35;2.90;;;1.90;;
69126;SDS011;56688;50.234;19.292;2022-07-29T06:02:03;6.10;;;1.70;;
69126;SDS011;56688;50.234;19.292;2022-07-29T06:04:32;4.30;;;1.90;;
69126;SDS011;56688;50.234;19.292;2022-07-29T06:07:00;6.90;;;1.90;;
69126;SDS011;56688;50.234;19.292;2022-07-29T06:09:28;3.40;;;2.10;;
69126;SDS011;56688;50.234;19.292;2022-07-29T06:11:55;8.00;;;2.00;;
69126;SDS011;56688;50.234;19.292;2022-07-29T06:14:22;4.90;;;1.80;;
69126;SDS011;56688;50.234;19.292;2022-07-29T06:16:49;6.90;;;1.90;;
69126;SDS011;56688;50.234;19.292;2022-07-29T06:19:16;3.60;;;1.80;;
69126;SDS011;56688;50.234;19.292;2022-07-29T06:21:43;2.70;;;1.50;;
69126;SDS011;56688;50.234;19.292;2022-07-29T06:24:11;5.30;;;1.60;;
69126;SDS011;56688;50.234;19.292;2022-07-29T06:26:39;2.90;;;1.70;;
69126;SDS011;56688;50.234;19.292;2022-07-29T06:29:07;4.50;;;1.90;;
69126;SDS011;56688;50.234;19.292;2022-07-29T06:31:37;6.00;;;1.80;;
69126;SDS011;56688;50.234;19.292;2022-07-29T06:34:04;4.40;;;1.80;;
69126;SDS011;56688;50.234;19.292;2022-07-29T06:36:33;3.10;;;1.90;;
69126;SDS011;56688;50.234;19.292;2022-07-29T06:39:03;2.50;;;1.80;;
69126;SDS011;56688;50.234;19.292;2022-07-29T06:41:33;3.10;;;1.90;;
69126;SDS011;56688;50.234;19.292;2022-07-29T06:44:05;3.80;;;1.80;;
69126;SDS011;56688;50.234;19.292;2022-07-29T06:46:32;3.30;;;1.90;;
69126;SDS011;56688;50.234;19.292;2022-07-29T06:48:59;4.40;;;1.80;;
69126;SDS011;56688;50.234;19.292;2022-07-29T06:51:28;4.60;;;1.80;;
69126;SDS011;56688;50.234;19.292;2022-07-29T06:53:55;3.70;;;1.90;;
69126;SDS011;56688;50.234;19.292;2022-07-29T06:58:56;2.90;;;1.90;;
69126;SDS011;56688;50.234;19.292;2022-07-29T07:01:23;3.00;;;1.60;;
69126;SDS011;56688;50.234;19.292;2022-07-29T07:03:51;4.20;;;1.60;;
69126;SDS011;56688;50.234;19.292;2022-07-29T07:06:18;4.20;;;2.00;;
69126;SDS011;56688;50.234;19.292;2022-07-29T07:08:45;4.20;;;2.10;;
69126;SDS011;56688;50.234;19.292;2022-07-29T07:11:12;3.90;;;1.90;;
69126;SDS011;56688;50.234;19.292;2022-07-29T07:13:39;6.70;;;1.70;;
69126;SDS011;56688;50.234;19.292;2022-07-29T07:16:05;4.40;;;1.70;;
69126;SDS011;56688;50.234;19.292;2022-07-29T07:18:32;3.00;;;1.60;;
69126;SDS011;56688;50.234;19.292;2022-07-29T07:20:59;4.40;;;1.70;;
69126;SDS011;56688;50.234;19.292;2022-07-29T07:23:26;4.00;;;1.90;;
69126;SDS011;56688;50.234;19.292;2022-07-29T07:25:53;2.60;;;1.60;;
69126;SDS011;56688;50.234;19.292;2022-07-29T07:28:20;6.40;;;2.10;;
69126;SDS011;56688;50.234;19.292;2022-07-29T07:30:50;4.50;;;1.70;;
69126;SDS011;56688;50.234;19.292;2022-07-29T07:33:18;6.20;;;1.50;;
69126;SDS011;56688;50.234;19.292;2022-07-29T07:35:46;2.20;;;1.70;;
69126;SDS011;56688;50.234;19.292;2022-07-29T07:38:13;4.50;;;1.60;;
69126;SDS011;56688;50.234;19.292;2022-07-29T07:40:40;5.10;;;1.90;;
69126;SDS011;56688;50.234;19.292;2022-07-29T07:43:07;3.70;;;1.90;;
69126;SDS011;56688;50.234;19.292;2022-07-29T07:45:34;4.80;;;1.70;;
69126;SDS011;56688;50.234;19.292;2022-07-29T07:48:04;2.60;;;1.70;;
69126;SDS011;56688;50.234;19.292;2022-07-29T07:50:31;4.90;;;1.80;;
69126;SDS011;56688;50.234;19.292;2022-07-29T07:52:58;5.30;;;2.00;;
69126;SDS011;56688;50.234;19.292;2022-07-29T07:55:26;2.90;;;2.00;;
69126;SDS011;56688;50.234;19.292;2022-07-29T07:57:53;3.00;;;1.70;;
69126;SDS011;56688;50.234;19.292;2022-07-29T08:00:21;2.80;;;1.80;;
69126;SDS011;56688;50.234;19.292;2022-07-29T08:02:49;5.00;;;1.90;;
69126;SDS011;56688;50.234;19.292;2022-07-29T08:05:17;2.70;;;1.60;;
69126;SDS011;56688;50.234;19.292;2022-07-29T08:07:45;3.60;;;1.60;;
69126;SDS011;56688;50.234;19.292;2022-07-29T08:10:14;4.30;;;1.90;;
69126;SDS011;56688;50.234;19.292;2022-07-29T08:13:03;3.60;;;1.90;;
69126;SDS011;56688;50.234;19.292;2022-07-29T08:15:32;3.30;;;1.70;;
69126;SDS011;56688;50.234;19.292;2022-07-29T08:17:59;4.10;;;1.90;;
69126;SDS011;56688;50.234;19.292;2022-07-29T08:20:33;2.10;;;1.70;;
69126;SDS011;56688;50.234;19.292;2022-07-29T08:23:02;6.50;;;1.70;;
69126;SDS011;56688;50.234;19.292;2022-07-29T08:25:31;4.50;;;1.80;;
69126;SDS011;56688;50.234;19.292;2022-07-29T08:28:03;6.00;;;1.90;;
69126;SDS011;56688;50.234;19.292;2022-07-29T08:30:31;2.60;;;1.70;;
69126;SDS011;56688;50.234;19.292;2022-07-29T08:32:59;1.70;;;1.20;;
69126;SDS011;56688;50.234;19.292;2022-07-29T08:35:26;5.00;;;1.70;;
69126;SDS011;56688;50.234;19.292;2022-07-29T08:37:58;2.50;;;1.40;;
69126;SDS011;56688;50.234;19.292;2022-07-29T08:40:27;2.00;;;1.60;;
69126;SDS011;56688;50.234;19.292;2022-07-29T08:42:58;5.70;;;2.10;;
69126;SDS011;56688;50.234;19.292;2022-07-29T08:45:40;3.70;;;1.80;;
69126;SDS011;56688;50.234;19.292;2022-07-29T08:48:16;2.50;;;1.50;;
69126;SDS011;56688;50.234;19.292;2022-07-29T08:50:46;4.50;;;1.60;;
69126;SDS011;56688;50.234;19.292;2022-07-29T08:53:15;3.40;;;1.50;;
69126;SDS011;56688;50.234;19.292;2022-07-29T08:55:43;3.80;;;1.70;;
69126;SDS011;56688;50.234;19.292;2022-07-29T08:58:12;3.70;;;1.40;;
69126;SDS011;56688;50.234;19.292;2022-07-29T09:00:42;2.90;;;1.60;;
69126;SDS011;56688;50.234;19.292;2022-07-29T09:03:12;4.00;;;1.70;;
69126;SDS011;56688;50.234;19.292;2022-07-29T09:05:42;2.80;;;1.60;;
69126;SDS011;56688;50.234;19.292;2022-07-29T09:08:14;3.80;;;1.60;;
69126;SDS011;56688;50.234;19.292;2022-07-29T09:10:42;3.00;;;1.60;;
69126;SDS011;56688;50.234;19.292;2022-07-29T09:13:10;5.10;;;1.60;;
69126;SDS011;56688;50.234;19.292;2022-07-29T09:15:37;3.50;;;1.90;;
69126;SDS011;56688;50.234;19.292;2022-07-29T09:18:03;3.70;;;1.40;;
69126;SDS011;56688;50.234;19.292;2022-07-29T09:20:30;3.40;;;1.60;;
69126;SDS011;56688;50.234;19.292;2022-07-29T09:23:13;2.90;;;1.80;;
69126;SDS011;56688;50.234;19.292;2022-07-29T09:25:50;4.20;;;1.50;;
69126;SDS011;56688;50.234;19.292;2022-07-29T09:28:17;5.30;;;1.90;;
69126;SDS011;56688;50.234;19.292;2022-07-29T09:33:20;2.80;;;1.50;;
69126;SDS011;56688;50.234;19.292;2022-07-29T09:38:33;5.60;;;1.70;;
69126;SDS011;56688;50.234;19.292;2022-07-29T09:41:03;3.00;;;1.50;;
69126;SDS011;56688;50.234;19.292;2022-07-29T09:43:33;5.20;;;1.60;;
69126;SDS011;56688;50.234;19.292;2022-07-29T09:48:43;2.70;;;1.30;;
69126;SDS011;56688;50.234;19.292;2022-07-29T09:51:18;3.00;;;1.70;;
69126;SDS011;56688;50.234;19.292;2022-07-29T09:53:53;2.90;;;1.60;;
69126;SDS011;56688;50.234;19.292;2022-07-29T09:56:26;4.30;;;1.60;;
69126;SDS011;56688;50.234;19.292;2022-07-29T09:59:06;5.40;;;1.80;;
69126;SDS011;56688;50.234;19.292;2022-07-29T10:01:34;5.60;;;1.60;;
69126;SDS011;56688;50.234;19.292;2022-07-29T10:04:02;4.20;;;1.60;;
69126;SDS011;56688;50.234;19.292;2022-07-29T10:06:29;3.70;;;1.80;;
69126;SDS011;56688;50.234;19.292;2022-07-29T10:09:11;2.40;;;1.60;;
69126;SDS011;56688;50.234;19.292;2022-07-29T10:11:38;1.90;;;1.50;;
69126;SDS011;56688;50.234;19.292;2022-07-29T10:14:15;4.30;;;1.90;;
69126;SDS011;56688;50.234;19.292;2022-07-29T10:16:42;3.90;;;1.70;;
69126;SDS011;56688;50.234;19.292;2022-07-29T10:19:09;2.10;;;1.60;;
69126;SDS011;56688;50.234;19.292;2022-07-29T10:21:37;5.60;;;1.90;;
69126;SDS011;56688;50.234;19.292;2022-07-29T10:24:06;2.80;;;1.60;;
69126;SDS011;56688;50.234;19.292;2022-07-29T10:26:40;3.70;;;1.80;;
69126;SDS011;56688;50.234;19.292;2022-07-29T10:29:08;3.70;;;1.90;;
69126;SDS011;56688;50.234;19.292;2022-07-29T10:34:25;4.40;;;1.70;;
69126;SDS011;56688;50.234;19.292;2022-07-29T10:37:14;3.70;;;1.80;;
69126;SDS011;56688;50.234;19.292;2022-07-29T10:42:25;5.70;;;2.20;;
69126;SDS011;56688;50.234;19.292;2022-07-29T10:45:00;2.80;;;1.70;;
69126;SDS011;56688;50.234;19.292;2022-07-29T10:47:30;2.60;;;1.60;;
69126;SDS011;56688;50.234;19.292;2022-07-29T10:49:59;2.70;;;1.90;;
69126;SDS011;56688;50.234;19.292;2022-07-29T10:58:10;3.70;;;1.90;;
69126;SDS011;56688;50.234;19.292;2022-07-29T11:00:39;3.10;;;1.80;;
69126;SDS011;56688;50.234;19.292;2022-07-29T11:03:06;2.90;;;2.00;;
69126;SDS011;56688;50.234;19.292;2022-07-29T11:08:21;3.40;;;2.10;;
69126;SDS011;56688;50.234;19.292;2022-07-29T11:10:53;3.70;;;1.70;;
69126;SDS011;56688;50.234;19.292;2022-07-29T11:13:55;3.10;;;1.80;;
69126;SDS011;56688;50.234;19.292;2022-07-29T11:16:22;3.60;;;1.90;;
69126;SDS011;56688;50.234;19.292;2022-07-29T11:21:51;2.60;;;1.80;;
69126;SDS011;56688;50.234;19.292;2022-07-29T11:24:26;3.60;;;2.00;;
69126;SDS011;56688;50.234;19.292;2022-07-29T11:29:49;2.50;;;1.80;;
69126;SDS011;56688;50.234;19.292;2022-07-29T11:32:37;6.50;;;2.10;;
69126;SDS011;56688;50.234;19.292;2022-07-29T11:43:50;3.50;;;2.10;;
69126;SDS011;56688;50.234;19.292;2022-07-29T11:49:23;2.70;;;1.80;;
69126;SDS011;56688;50.234;19.292;2022-07-29T11:51:58;2.20;;;1.80;;
69126;SDS011;56688;50.234;19.292;2022-07-29T11:54:31;3.30;;;1.90;;
69126;SDS011;56688;50.234;19.292;2022-07-29T11:57:19;5.80;;;2.00;;
69126;SDS011;56688;50.234;19.292;2022-07-29T12:00:07;2.90;;;2.00;;
69126;SDS011;56688;50.234;19.292;2022-07-29T12:05:14;2.40;;;2.00;;
69126;SDS011;56688;50.234;19.292;2022-07-29T12:08:05;1.90;;;1.80;;
69126;SDS011;56688;50.234;19.292;2022-07-29T12:10:39;3.90;;;2.00;;
69126;SDS011;56688;50.234;19.292;2022-07-29T12:13:07;5.30;;;2.00;;
69126;SDS011;56688;50.234;19.292;2022-07-29T12:15:35;4.60;;;2.00;;
69126;SDS011;56688;50.234;19.292;2022-07-29T12:18:13;2.30;;;1.70;;
69126;SDS011;56688;50.234;19.292;2022-07-29T12:20:43;4.20;;;2.00;;
69126;SDS011;56688;50.234;19.292;2022-07-29T12:23:11;2.60;;;1.90;;
69126;SDS011;56688;50.234;19.292;2022-07-29T12:25:42;4.10;;;1.60;;
69126;SDS011;56688;50.234;19.292;2022-07-29T12:28:15;5.30;;;1.70;;
69126;SDS011;56688;50.234;19.292;2022-07-29T12:30:52;5.10;;;1.80;;
69126;SDS011;56688;50.234;19.292;2022-07-29T12:33:21;2.80;;;1.80;;
69126;SDS011;56688;50.234;19.292;2022-07-29T12:35:50;4.40;;;1.90;;
69126;SDS011;56688;50.234;19.292;2022-07-29T12:38:43;3.10;;;1.80;;
69126;SDS011;56688;50.234;19.292;2022-07-29T12:41:11;2.90;;;1.90;;
69126;SDS011;56688;50.234;19.292;2022-07-29T12:43:47;3.80;;;1.90;;
69126;SDS011;56688;50.234;19.292;2022-07-29T12:46:19;3.70;;;1.80;;
69126;SDS011;56688;50.234;19.292;2022-07-29T12:48:49;3.60;;;1.80;;
69126;SDS011;56688;50.234;19.292;2022-07-29T12:56:38;4.60;;;1.90;;
69126;SDS011;56688;50.234;19.292;2022-07-29T12:59:11;4.00;;;1.80;;
69126;SDS011;56688;50.234;19.292;2022-07-29T13:01:39;3.20;;;1.80;;
69126;SDS011;56688;50.234;19.292;2022-07-29T13:04:06;7.20;;;1.90;;
69126;SDS011;56688;50.234;19.292;2022-07-29T13:09:03;3.80;;;1.90;;
69126;SDS011;56688;50.234;19.292;2022-07-29T13:11:31;8.10;;;2.00;;
69126;SDS011;56688;50.234;19.292;2022-07-29T13:14:02;5.50;;;2.00;;
69126;SDS011;56688;50.234;19.292;2022-07-29T13:16:32;3.30;;;1.80;;
69126;SDS011;56688;50.234;19.292;2022-07-29T13:19:08;2.90;;;1.90;;
69126;SDS011;56688;50.234;19.292;2022-07-29T13:21:37;2.90;;;1.70;;
69126;SDS011;56688;50.234;19.292;2022-07-29T13:24:06;2.30;;;1.90;;
69126;SDS011;56688;50.234;19.292;2022-07-29T13:26:34;5.00;;;2.10;;
69126;SDS011;56688;50.234;19.292;2022-07-29T13:29:01;4.50;;;2.20;;
69126;SDS011;56688;50.234;19.292;2022-07-29T13:31:27;4.30;;;1.90;;
69126;SDS011;56688;50.234;19.292;2022-07-29T13:33:54;5.40;;;1.90;;
69126;SDS011;56688;50.234;19.292;2022-07-29T13:36:22;5.70;;;2.30;;
69126;SDS011;56688;50.234;19.292;2022-07-29T13:38:49;4.60;;;2.10;;
69126;SDS011;56688;50.234;19.292;2022-07-29T13:41:16;4.30;;;2.10;;
69126;SDS011;56688;50.234;19.292;2022-07-29T13:43:43;3.70;;;2.20;;
69126;SDS011;56688;50.234;19.292;2022-07-29T13:46:10;4.60;;;2.00;;
69126;SDS011;56688;50.234;19.292;2022-07-29T13:48:37;3.30;;;2.10;;
69126;SDS011;56688;50.234;19.292;2022-07-29T13:51:04;2.80;;;1.80;;
69126;SDS011;56688;50.234;19.292;2022-07-29T13:53:30;4.50;;;1.80;;
69126;SDS011;56688;50.234;19.292;2022-07-29T13:55:57;3.30;;;1.80;;
69126;SDS011;56688;50.234;19.292;2022-07-29T13:58:24;6.40;;;1.80;;
69126;SDS011;56688;50.234;19.292;2022-07-29T14:00:51;4.70;;;1.80;;
69126;SDS011;56688;50.234;19.292;2022-07-29T14:03:21;2.80;;;2.00;;
69126;SDS011;56688;50.234;19.292;2022-07-29T14:05:48;2.20;;;1.70;;
69126;SDS011;56688;50.234;19.292;2022-07-29T14:08:15;2.30;;;2.00;;
69126;SDS011;56688;50.234;19.292;2022-07-29T14:10:42;5.00;;;2.00;;
69126;SDS011;56688;50.234;19.292;2022-07-29T14:13:09;4.40;;;2.00;;
69126;SDS011;56688;50.234;19.292;2022-07-29T14:15:51;6.70;;;2.00;;
69126;SDS011;56688;50.234;19.292;2022-07-29T14:18:19;2.80;;;1.90;;
69126;SDS011;56688;50.234;19.292;2022-07-29T14:20:46;4.60;;;2.10;;
69126;SDS011;56688;50.234;19.292;2022-07-29T14:23:13;3.80;;;2.10;;
69126;SDS011;56688;50.234;19.292;2022-07-29T14:25:41;2.60;;;1.80;;
69126;SDS011;56688;50.234;19.292;2022-07-29T14:28:10;7.20;;;2.20;;
69126;SDS011;56688;50.234;19.292;2022-07-29T14:30:40;4.00;;;2.20;;
69126;SDS011;56688;50.234;19.292;2022-07-29T14:33:07;8.80;;;2.40;;
69126;SDS011;56688;50.234;19.292;2022-07-29T14:35:34;8.30;;;2.30;;
69126;SDS011;56688;50.234;19.292;2022-07-29T14:38:01;4.90;;;2.20;;
69126;SDS011;56688;50.234;19.292;2022-07-29T14:40:28;5.30;;;2.10;;
69126;SDS011;56688;50.234;19.292;2022-07-29T14:42:55;4.40;;;2.00;;
69126;SDS011;56688;50.234;19.292;2022-07-29T14:45:22;3.80;;;2.50;;
69126;SDS011;56688;50.234;19.292;2022-07-29T14:47:49;5.90;;;2.20;;
69126;SDS011;56688;50.234;19.292;2022-07-29T14:50:22;5.00;;;2.60;;
69126;SDS011;56688;50.234;19.292;2022-07-29T14:52:58;4.60;;;3.20;;
69126;SDS011;56688;50.234;19.292;2022-07-29T14:55:25;5.70;;;2.50;;
69126;SDS011;56688;50.234;19.292;2022-07-29T14:57:53;3.70;;;2.30;;
69126;SDS011;56688;50.234;19.292;2022-07-29T15:00:31;9.40;;;2.70;;
69126;SDS011;56688;50.234;19.292;2022-07-29T15:03:00;6.90;;;2.50;;
69126;SDS011;56688;50.234;19.292;2022-07-29T15:05:29;4.70;;;2.30;;
69126;SDS011;56688;50.234;19.292;2022-07-29T15:07:57;4.20;;;2.30;;
69126;SDS011;56688;50.234;19.292;2022-07-29T15:13:08;5.50;;;2.80;;
69126;SDS011;56688;50.234;19.292;2022-07-29T15:15:34;4.90;;;2.50;;
69126;SDS011;56688;50.234;19.292;2022-07-29T15:18:02;4.20;;;2.70;;
69126;SDS011;56688;50.234;19.292;2022-07-29T15:20:29;4.20;;;2.70;;
69126;SDS011;56688;50.234;19.292;2022-07-29T15:22:56;2.70;;;2.20;;
69126;SDS011;56688;50.234;19.292;2022-07-29T15:25:23;4.10;;;2.40;;
69126;SDS011;56688;50.234;19.292;2022-07-29T15:27:53;3.60;;;2.20;;
69126;SDS011;56688;50.234;19.292;2022-07-29T15:30:26;4.70;;;2.30;;
69126;SDS011;56688;50.234;19.292;2022-07-29T15:33:00;7.10;;;2.60;;
69126;SDS011;56688;50.234;19.292;2022-07-29T15:35:28;4.60;;;2.80;;
69126;SDS011;56688;50.234;19.292;2022-07-29T15:37:55;7.70;;;2.40;;
69126;SDS011;56688;50.234;19.292;2022-07-29T15:40:21;5.00;;;2.70;;
69126;SDS011;56688;50.234;19.292;2022-07-29T15:42:48;7.00;;;2.50;;
69126;SDS011;56688;50.234;19.292;2022-07-29T15:45:15;8.10;;;3.80;;
69126;SDS011;56688;50.234;19.292;2022-07-29T15:47:43;8.50;;;2.50;;
69126;SDS011;56688;50.234;19.292;2022-07-29T15:50:10;5.10;;;2.80;;
69126;SDS011;56688;50.234;19.292;2022-07-29T15:52:41;3.80;;;2.40;;
69126;SDS011;56688;50.234;19.292;2022-07-29T15:55:09;3.20;;;2.40;;
69126;SDS011;56688;50.234;19.292;2022-07-29T15:57:37;5.50;;;2.40;;
69126;SDS011;56688;50.234;19.292;2022-07-29T16:00:06;7.40;;;2.30;;